Time;durP1;ratioP1;P1;durP2;ratioP2;P2;SDS_P1;SDS_P2;PMS_P1;PMS_P2;Temp;Humidity;BMP_temperature;BMP_pressure;BME280_temperature;BME280_humidity;BME280_pressure;Samples;Min_cycle;Max_cycle;Signal;HPM_P1;HPM_P2
2024/03/31 00:00:23;;;;;;;;;12.25;9.75;;;;;;;;5051559;28;8783;-69
2024/03/31 00:02:48;;;;;;;;;14.50;7.50;;;;;;;;5051559;28;8818;-68
2024/03/31 00:05:14;;;;;;;;;8.25;3.00;;;;;;;;5039500;28;9567;-68
2024/03/31 00:07:39;;;;;;;;;14.50;8.50;;;;;;;;5031573;28;8809;-68
2024/03/31 00:10:04;;;;;;;;;15.25;12.50;;;;;;;;5031393;28;8816;-68
2024/03/31 00:12:30;;;;;;;;;13.25;9.50;;;;;;;;5038278;28;8845;-68
2024/03/31 00:14:56;;;;;;;;;15.00;7.00;;;;;;;;5050190;28;8795;-68
2024/03/31 00:17:21;;;;;;;;;15.00;10.00;;;;;;;;5050008;28;8811;-70
2024/03/31 00:19:47;;;;;;;;;24.00;10.00;;;;;;;;5049806;28;8837;-70
2024/03/31 00:22:13;;;;;;;;;16.00;10.75;;;;;;;;5051312;28;8837;-69
2024/03/31 00:24:38;;;;;;;;;13.00;8.25;;;;;;;;5051286;28;8884;-70
2024/03/31 00:27:04;;;;;;;;;15.75;8.00;;;;;;;;5051249;28;8795;-69
2024/03/31 00:29:29;;;;;;;;;12.00;8.50;;;;;;;;5051343;28;8794;-69
2024/03/31 00:31:54;;;;;;;;;13.50;12.00;;;;;;;;5050964;28;8853;-69
2024/03/31 00:34:23;;;;;;;;;10.25;8.00;;;;;;;;5045262;28;8928;-69
2024/03/31 00:36:48;;;;;;;;;15.75;7.75;;;;;;;;5031313;28;8777;-69
2024/03/31 00:39:14;;;;;;;;;15.00;8.00;;;;;;;;5030928;28;10895;-67
2024/03/31 00:41:39;;;;;;;;;13.50;9.75;;;;;;;;5030933;28;8793;-69
2024/03/31 00:44:05;;;;;;;;;14.50;6.50;;;;;;;;5050337;28;8806;-69
2024/03/31 00:46:30;;;;;;;;;11.00;7.00;;;;;;;;5050889;28;8802;-69
2024/03/31 00:48:55;;;;;;;;;22.50;8.00;;;;;;;;5050770;28;11415;-69
2024/03/31 00:51:21;;;;;;;;;15.25;9.25;;;;;;;;5050553;28;8842;-69
2024/03/31 00:53:46;;;;;;;;;16.00;8.50;;;;;;;;5049348;28;8823;-69
2024/03/31 00:56:12;;;;;;;;;18.25;10.25;;;;;;;;5050701;28;8880;-69
2024/03/31 00:58:37;;;;;;;;;13.00;8.50;;;;;;;;5050776;28;8929;-69
2024/03/31 01:01:03;;;;;;;;;12.75;7.00;;;;;;;;5050000;28;11773;-69
2024/03/31 01:03:29;;;;;;;;;12.25;7.00;;;;;;;;5050400;28;8783;-69
2024/03/31 01:05:56;;;;;;;;;14.25;7.25;;;;;;;;5033157;28;8915;-69
2024/03/31 01:08:21;;;;;;;;;13.00;7.50;;;;;;;;5029555;28;9536;-69
2024/03/31 01:10:47;;;;;;;;;13.00;10.25;;;;;;;;5030880;28;10876;-69
2024/03/31 01:13:13;;;;;;;;;9.00;8.25;;;;;;;;5041386;28;9603;-69
2024/03/31 01:15:38;;;;;;;;;13.25;7.25;;;;;;;;5050542;28;8791;-69
2024/03/31 01:18:04;;;;;;;;;14.75;8.00;;;;;;;;5050248;28;10956;-69
2024/03/31 01:20:29;;;;;;;;;11.75;6.50;;;;;;;;5048958;28;8798;-69
2024/03/31 01:22:55;;;;;;;;;9.75;7.75;;;;;;;;5050356;28;8811;-69
2024/03/31 01:25:20;;;;;;;;;13.25;7.00;;;;;;;;5050356;28;8871;-69
2024/03/31 01:27:45;;;;;;;;;16.25;8.75;;;;;;;;5050393;28;8782;-69
2024/03/31 01:30:10;;;;;;;;;10.25;8.00;;;;;;;;5048657;28;8820;-68
2024/03/31 01:32:36;;;;;;;;;13.00;9.00;;;;;;;;5050063;28;8879;-68
2024/03/31 01:35:01;;;;;;;;;15.50;8.00;;;;;;;;5038777;28;8825;-69
2024/03/31 01:37:26;;;;;;;;;17.50;14.00;;;;;;;;5030481;28;8940;-69
2024/03/31 01:39:52;;;;;;;;;14.00;11.00;;;;;;;;5030200;28;9612;-69
2024/03/31 01:42:17;;;;;;;;;18.75;13.50;;;;;;;;5034712;28;8806;-69
2024/03/31 01:44:42;;;;;;;;;13.25;12.00;;;;;;;;5048750;28;8811;-69
2024/03/31 01:47:07;;;;;;;;;19.50;13.00;;;;;;;;5048716;28;8822;-69
2024/03/31 01:49:33;;;;;;;;;19.75;13.00;;;;;;;;5050004;28;8821;-69
2024/03/31 01:51:58;;;;;;;;;15.00;12.00;;;;;;;;5048674;28;9470;-68
2024/03/31 01:54:23;;;;;;;;;12.00;7.75;;;;;;;;5050070;28;8783;-69
2024/03/31 01:56:48;;;;;;;;;16.00;11.00;;;;;;;;5050016;28;8799;-69
2024/03/31 01:59:14;;;;;;;;;21.75;12.75;;;;;;;;5049992;28;8863;-69
2024/03/31 02:01:39;;;;;;;;;13.00;10.50;;;;;;;;5048316;28;8815;-68
2024/03/31 02:04:04;;;;;;;;;18.75;14.50;;;;;;;;5047485;28;8795;-68
2024/03/31 02:06:30;;;;;;;;;16.50;12.00;;;;;;;;5029860;28;8892;-68
2024/03/31 02:08:55;;;;;;;;;12.00;10.50;;;;;;;;5029854;28;8912;-68
2024/03/31 02:11:20;;;;;;;;;16.00;12.00;;;;;;;;5045417;28;8827;-68
2024/03/31 02:13:45;;;;;;;;;21.50;11.50;;;;;;;;5063328;28;8826;-68
2024/03/31 02:16:11;;;;;;;;;16.00;11.00;;;;;;;;5052192;28;8831;-68
2024/03/31 02:18:36;;;;;;;;;16.50;11.75;;;;;;;;5052330;28;8783;-68
2024/03/31 02:21:01;;;;;;;;;19.50;12.50;;;;;;;;5053481;28;8794;-69
2024/03/31 02:23:27;;;;;;;;;17.75;12.50;;;;;;;;5053542;28;8783;-69
2024/03/31 02:25:53;;;;;;;;;17.50;10.00;;;;;;;;5053422;28;11228;-69
2024/03/31 02:28:18;;;;;;;;;15.50;10.75;;;;;;;;5053488;28;9549;-69
2024/03/31 02:30:44;;;;;;;;;19.75;11.50;;;;;;;;5053180;28;8823;-69
2024/03/31 02:33:09;;;;;;;;;15.50;11.50;;;;;;;;5053208;28;8779;-69
2024/03/31 02:35:34;;;;;;;;;16.50;13.25;;;;;;;;5038663;28;8805;-69
2024/03/31 02:38:00;;;;;;;;;20.50;12.75;;;;;;;;5033491;28;8794;-69
2024/03/31 02:40:25;;;;;;;;;18.50;11.50;;;;;;;;5033251;28;9014;-69
2024/03/31 02:42:50;;;;;;;;;19.50;12.50;;;;;;;;5042559;28;8825;-69
2024/03/31 02:45:16;;;;;;;;;14.00;13.75;;;;;;;;5053273;28;8799;-69
2024/03/31 02:47:41;;;;;;;;;14.50;12.25;;;;;;;;5052982;28;8890;-69
2024/03/31 02:50:06;;;;;;;;;16.50;13.75;;;;;;;;5052997;28;8799;-69
2024/03/31 02:52:31;;;;;;;;;14.00;10.75;;;;;;;;5053013;28;8823;-69
2024/03/31 02:54:58;;;;;;;;;20.75;12.50;;;;;;;;5053000;28;8793;-69
2024/03/31 02:57:23;;;;;;;;;17.50;12.00;;;;;;;;5052897;28;8771;-69
2024/03/31 02:59:48;;;;;;;;;24.50;14.25;;;;;;;;5052707;28;11184;-69
2024/03/31 03:02:14;;;;;;;;;15.75;11.50;;;;;;;;5052796;28;8820;-69
2024/03/31 03:04:39;;;;;;;;;15.75;13.50;;;;;;;;5045817;28;9561;-71
2024/03/31 03:07:04;;;;;;;;;15.25;11.00;;;;;;;;5032838;28;8894;-69
2024/03/31 03:09:30;;;;;;;;;15.75;11.75;;;;;;;;5032736;28;8794;-69
2024/03/31 03:11:55;;;;;;;;;16.50;11.50;;;;;;;;5034780;28;8975;-68
2024/03/31 03:14:20;;;;;;;;;15.50;13.00;;;;;;;;5052534;28;8868;-68
2024/03/31 03:16:45;;;;;;;;;16.50;11.75;;;;;;;;5052446;28;8803;-68
2024/03/31 03:19:11;;;;;;;;;18.25;13.50;;;;;;;;5052407;28;8791;-68
2024/03/31 03:21:36;;;;;;;;;15.50;11.75;;;;;;;;5034937;28;8818;-68
2024/03/31 03:24:02;;;;;;;;;14.50;10.00;;;;;;;;5031751;28;8816;-68
2024/03/31 03:26:27;;;;;;;;;23.50;11.25;;;;;;;;5032036;28;8789;-68
2024/03/31 03:28:52;;;;;;;;;16.00;12.00;;;;;;;;5031986;28;8789;-68
2024/03/31 03:31:17;;;;;;;;;19.25;14.25;;;;;;;;5031047;28;8904;-68
2024/03/31 03:33:43;;;;;;;;;15.50;11.75;;;;;;;;5031891;28;8797;-68
2024/03/31 03:36:09;;;;;;;;;23.75;13.50;;;;;;;;5031783;28;8794;-68
2024/03/31 03:38:34;;;;;;;;;22.00;14.75;;;;;;;;5031763;28;9410;-68
2024/03/31 03:41:00;;;;;;;;;19.50;14.00;;;;;;;;5031775;28;11548;-68
2024/03/31 03:43:26;;;;;;;;;15.25;12.75;;;;;;;;5032758;28;9548;-68
2024/03/31 03:45:51;;;;;;;;;18.25;10.75;;;;;;;;5031687;28;8847;-68
2024/03/31 03:48:16;;;;;;;;;19.75;14.50;;;;;;;;5028631;28;11452;-68
2024/03/31 03:50:42;;;;;;;;;7.50;6.25;;;;;;;;5030596;28;8840;-68
2024/03/31 03:53:07;;;;;;;;;19.50;14.00;;;;;;;;5030882;28;8798;-68
2024/03/31 03:55:32;;;;;;;;;12.50;7.75;;;;;;;;5031436;28;8805;-68
2024/03/31 03:57:58;;;;;;;;;20.25;12.00;;;;;;;;5031482;28;8797;-68
2024/03/31 04:00:23;;;;;;;;;15.75;13.00;;;;;;;;5031119;28;8817;-68
2024/03/31 04:02:48;;;;;;;;;21.25;13.00;;;;;;;;5031783;28;8994;-68
2024/03/31 04:05:14;;;;;;;;;14.75;11.50;;;;;;;;5031818;28;8828;-68
2024/03/31 04:07:39;;;;;;;;;22.25;13.25;;;;;;;;5031680;28;8778;-68
2024/03/31 04:10:05;;;;;;;;;16.25;13.25;;;;;;;;5031537;28;8781;-68
2024/03/31 04:12:30;;;;;;;;;24.25;14.00;;;;;;;;5038346;28;8826;-68
2024/03/31 04:14:55;;;;;;;;;16.25;12.25;;;;;;;;5051453;28;8787;-68
2024/03/31 04:17:21;;;;;;;;;18.50;12.50;;;;;;;;5051316;28;8856;-68
2024/03/31 04:19:46;;;;;;;;;19.25;14.25;;;;;;;;5051281;28;8794;-68
2024/03/31 04:22:11;;;;;;;;;22.75;13.00;;;;;;;;5051180;28;8799;-68
2024/03/31 04:24:37;;;;;;;;;20.50;15.00;;;;;;;;5051239;28;8922;-68
2024/03/31 04:27:02;;;;;;;;;14.75;12.00;;;;;;;;5051076;28;8787;-68
2024/03/31 04:29:28;;;;;;;;;18.25;11.00;;;;;;;;5049664;28;8870;-68
2024/03/31 04:31:54;;;;;;;;;13.00;12.50;;;;;;;;5050729;28;8938;-68
2024/03/31 04:34:19;;;;;;;;;14.75;12.50;;;;;;;;5046746;28;9574;-68
2024/03/31 04:36:45;;;;;;;;;15.25;11.00;;;;;;;;5030263;28;11414;-68
2024/03/31 04:39:10;;;;;;;;;20.25;11.00;;;;;;;;5031175;28;8920;-68
2024/03/31 04:41:35;;;;;;;;;20.00;13.25;;;;;;;;5029568;28;8820;-68
2024/03/31 04:44:01;;;;;;;;;23.25;10.75;;;;;;;;5049664;28;8918;-68
2024/03/31 04:46:27;;;;;;;;;16.75;11.75;;;;;;;;5050563;28;8807;-68
2024/03/31 04:48:52;;;;;;;;;18.25;13.50;;;;;;;;5050689;28;8798;-68
2024/03/31 04:51:18;;;;;;;;;18.50;13.25;;;;;;;;5050545;28;8893;-68
2024/03/31 04:53:43;;;;;;;;;16.25;10.75;;;;;;;;5050857;28;8783;-68
2024/03/31 04:56:09;;;;;;;;;13.50;11.75;;;;;;;;5050727;28;11497;-68
2024/03/31 04:58:34;;;;;;;;;16.25;12.00;;;;;;;;5050521;28;8905;-68
2024/03/31 05:00:59;;;;;;;;;16.50;11.50;;;;;;;;5050410;28;8791;-68
2024/03/31 05:03:25;;;;;;;;;22.00;12.00;;;;;;;;5050556;28;8904;-68
2024/03/31 05:05:51;;;;;;;;;16.25;11.25;;;;;;;;5033709;28;8798;-68
2024/03/31 05:08:16;;;;;;;;;17.75;12.50;;;;;;;;5045820;28;8906;-68
2024/03/31 05:10:54;;;;;;;;;19.75;13.00;;;;;;;;5030796;28;8797;-68
2024/03/31 05:13:19;;;;;;;;;16.75;13.00;;;;;;;;5043532;28;8902;-68
2024/03/31 05:15:44;;;;;;;;;17.75;12.75;;;;;;;;5050210;28;11410;-68
2024/03/31 05:18:11;;;;;;;;;19.50;12.75;;;;;;;;5050341;28;8844;-68
2024/03/31 05:20:36;;;;;;;;;18.00;12.50;;;;;;;;5050242;28;8783;-68
2024/03/31 10:18:40;;;;;;;;;16.75;10.00;;;;;;;;5123652;27;13420;-68
2024/03/31 10:21:05;;;;;;;;;12.75;5.50;;;;;;;;5053024;27;11427;-69
2024/03/31 10:23:31;;;;;;;;;19.00;11.50;;;;;;;;5087856;28;10948;-69
2024/03/31 10:25:57;;;;;;;;;16.75;10.75;;;;;;;;5087582;28;8802;-68
2024/03/31 10:28:23;;;;;;;;;16.75;6.75;;;;;;;;5085905;28;8904;-67
2024/03/31 10:30:48;;;;;;;;;11.25;6.00;;;;;;;;5085469;28;11106;-67
2024/03/31 10:33:14;;;;;;;;;13.75;7.75;;;;;;;;5088002;28;8783;-67
2024/03/31 10:35:40;;;;;;;;;13.75;8.50;;;;;;;;5087608;28;8810;-69
2024/03/31 10:38:09;;;;;;;;;15.25;9.50;;;;;;;;5087812;28;8802;-67
2024/03/31 10:40:36;;;;;;;;;20.00;16.75;;;;;;;;5087455;28;10657;-68
2024/03/31 10:43:01;;;;;;;;;18.50;14.00;;;;;;;;5087521;28;10936;-69
2024/03/31 10:45:26;;;;;;;;;25.25;16.75;;;;;;;;5087475;28;10824;-73
2024/03/31 10:47:52;;;;;;;;;23.75;14.00;;;;;;;;5087578;28;8806;-66
2024/03/31 10:50:21;;;;;;;;;25.50;13.00;;;;;;;;5087492;28;8783;-66
2024/03/31 10:52:47;;;;;;;;;19.00;14.75;;;;;;;;5087415;28;8910;-66
2024/03/31 10:55:12;;;;;;;;;19.25;12.50;;;;;;;;5087195;28;11029;-66
2024/03/31 10:57:38;;;;;;;;;24.25;12.75;;;;;;;;5087363;28;8833;-67
2024/03/31 11:00:05;;;;;;;;;21.00;15.25;;;;;;;;5087413;28;8936;-67
2024/03/31 11:02:33;;;;;;;;;22.75;17.25;;;;;;;;5087261;28;10977;-67
2024/03/31 11:05:05;;;;;;;;;17.75;11.50;;;;;;;;5087134;28;11034;-67
2024/03/31 11:07:32;;;;;;;;;25.50;14.75;;;;;;;;5087008;28;11006;-68
2024/03/31 11:09:57;;;;;;;;;25.00;15.00;;;;;;;;5087079;28;10962;-67
2024/03/31 11:12:23;;;;;;;;;19.00;12.25;;;;;;;;5087303;28;11689;-67
2024/03/31 11:14:50;;;;;;;;;20.00;14.50;;;;;;;;5087416;28;8879;-67
2024/03/31 11:17:16;;;;;;;;;30.00;16.00;;;;;;;;5087072;28;8864;-67
2024/03/31 11:19:44;;;;;;;;;19.25;11.50;;;;;;;;5086758;28;10675;-67
2024/03/31 11:22:11;;;;;;;;;16.75;11.25;;;;;;;;5086844;28;8803;-66
2024/03/31 11:24:37;;;;;;;;;13.75;6.75;;;;;;;;5086756;28;10344;-66
2024/03/31 11:27:02;;;;;;;;;19.50;16.25;;;;;;;;5086675;28;10820;-66
2024/03/31 11:29:28;;;;;;;;;17.00;9.25;;;;;;;;5074711;28;10525;-67
2024/03/31 11:31:54;;;;;;;;;21.50;13.50;;;;;;;;5073408;28;8798;-67
2024/03/31 11:34:19;;;;;;;;;20.25;12.75;;;;;;;;5071737;28;9615;-67
2024/03/31 11:36:45;;;;;;;;;20.25;11.25;;;;;;;;5072992;28;8783;-67
2024/03/31 11:39:13;;;;;;;;;23.00;15.75;;;;;;;;5073279;28;9532;-67
2024/03/31 11:41:39;;;;;;;;;17.75;13.00;;;;;;;;5072999;28;10498;-67
2024/03/31 11:44:04;;;;;;;;;20.00;13.50;;;;;;;;5072912;28;10466;-67
2024/03/31 11:46:30;;;;;;;;;20.50;12.75;;;;;;;;5072892;28;8767;-67
2024/03/31 11:48:57;;;;;;;;;22.75;11.75;;;;;;;;5072962;28;8770;-66
2024/03/31 11:51:23;;;;;;;;;24.00;12.75;;;;;;;;5072742;28;9657;-66
2024/03/31 11:53:48;;;;;;;;;22.50;15.25;;;;;;;;5072693;28;10772;-66
2024/03/31 11:56:13;;;;;;;;;20.75;12.25;;;;;;;;5071271;28;8791;-66
2024/03/31 11:58:38;;;;;;;;;17.75;13.75;;;;;;;;5072627;28;8791;-67
2024/03/31 12:01:05;;;;;;;;;19.00;13.25;;;;;;;;5071271;28;8860;-66
2024/03/31 12:03:30;;;;;;;;;17.00;12.25;;;;;;;;5072624;28;8821;-67
2024/03/31 12:05:56;;;;;;;;;23.50;10.50;;;;;;;;5072348;28;10515;-67
2024/03/31 12:08:21;;;;;;;;;17.25;12.25;;;;;;;;5072407;28;8802;-67
2024/03/31 12:10:47;;;;;;;;;18.50;12.00;;;;;;;;5072525;28;8798;-67
2024/03/31 12:13:13;;;;;;;;;20.00;16.25;;;;;;;;5073101;28;8787;-67
2024/03/31 12:15:39;;;;;;;;;19.00;14.75;;;;;;;;5072536;28;8802;-67
2024/03/31 12:18:04;;;;;;;;;19.25;15.50;;;;;;;;5072200;28;10493;-67
2024/03/31 12:20:29;;;;;;;;;21.25;15.00;;;;;;;;5072168;28;8794;-67
2024/03/31 12:22:55;;;;;;;;;22.75;14.00;;;;;;;;5072188;28;8791;-66
2024/03/31 12:25:21;;;;;;;;;20.50;12.00;;;;;;;;5072106;28;9540;-66
2024/03/31 12:27:47;;;;;;;;;24.25;14.00;;;;;;;;5070640;28;8838;-66
2024/03/31 12:30:12;;;;;;;;;21.75;15.25;;;;;;;;5072030;28;8805;-66
2024/03/31 12:32:37;;;;;;;;;21.75;13.25;;;;;;;;5070692;28;8803;-66
2024/03/31 12:35:04;;;;;;;;;24.50;16.25;;;;;;;;5071799;28;8811;-67
2024/03/31 12:37:29;;;;;;;;;21.75;14.75;;;;;;;;5071866;28;8782;-66
2024/03/31 12:39:55;;;;;;;;;21.25;11.00;;;;;;;;5070935;28;10455;-67
2024/03/31 12:42:22;;;;;;;;;23.50;16.00;;;;;;;;5071564;28;8896;-66
2024/03/31 12:44:54;;;;;;;;;15.00;10.75;;;;;;;;5071729;28;8783;-66
2024/03/31 12:47:20;;;;;;;;;13.75;11.75;;;;;;;;5071543;28;11161;-66
2024/03/31 12:49:45;;;;;;;;;21.50;16.75;;;;;;;;5071599;28;10406;-66
2024/03/31 12:52:10;;;;;;;;;16.50;14.50;;;;;;;;5071667;28;8821;-67
2024/03/31 12:54:36;;;;;;;;;19.50;11.25;;;;;;;;5071705;28;8795;-67
2024/03/31 12:57:02;;;;;;;;;19.50;12.50;;;;;;;;5071465;28;8833;-67
2024/03/31 12:59:27;;;;;;;;;20.75;13.50;;;;;;;;5071400;28;8884;-65
2024/03/31 13:01:58;;;;;;;;;13.50;9.00;;;;;;;;5071354;28;10450;-67
2024/03/31 13:04:23;;;;;;;;;18.50;12.25;;;;;;;;5071291;28;8782;-67
2024/03/31 13:06:49;;;;;;;;;16.25;8.75;;;;;;;;5071210;28;11110;-67
2024/03/31 13:09:17;;;;;;;;;12.50;7.50;;;;;;;;5071274;28;8783;-67
2024/03/31 13:11:43;;;;;;;;;14.75;12.00;;;;;;;;5071859;28;8775;-66
2024/03/31 13:14:11;;;;;;;;;16.75;10.75;;;;;;;;5071080;28;10400;-66
2024/03/31 13:16:37;;;;;;;;;20.00;11.75;;;;;;;;5071247;28;8842;-67
2024/03/31 13:19:02;;;;;;;;;18.50;10.50;;;;;;;;5071085;28;10267;-67
2024/03/31 13:21:28;;;;;;;;;15.25;11.25;;;;;;;;5071072;28;10270;-67
2024/03/31 13:23:53;;;;;;;;;19.25;12.50;;;;;;;;5070982;28;8795;-67
2024/03/31 13:26:19;;;;;;;;;25.50;11.50;;;;;;;;5070860;28;8798;-67
2024/03/31 13:28:44;;;;;;;;;18.50;9.00;;;;;;;;5070857;28;8859;-67
2024/03/31 13:31:09;;;;;;;;;19.00;13.25;;;;;;;;5070977;28;8813;-67
2024/03/31 13:33:35;;;;;;;;;18.25;11.00;;;;;;;;5069615;28;8936;-69
2024/03/31 13:36:00;;;;;;;;;19.50;12.25;;;;;;;;5070793;28;8786;-67
2024/03/31 13:38:25;;;;;;;;;22.25;13.50;;;;;;;;5068681;28;8834;-69
2024/03/31 13:40:51;;;;;;;;;14.75;10.50;;;;;;;;5069676;28;8814;-68
2024/03/31 13:43:16;;;;;;;;;16.00;12.25;;;;;;;;5070635;28;8803;-67
2024/03/31 13:45:41;;;;;;;;;20.25;12.00;;;;;;;;5070543;28;8771;-67
2024/03/31 13:48:07;;;;;;;;;17.25;9.00;;;;;;;;5058875;28;8857;-67
2024/03/31 13:50:32;;;;;;;;;20.75;10.50;;;;;;;;5062033;28;8817;-67
2024/03/31 13:52:58;;;;;;;;;19.00;10.75;;;;;;;;5055753;28;8819;-67
2024/03/31 13:55:23;;;;;;;;;22.00;9.00;;;;;;;;5059061;28;8828;-67
2024/03/31 13:57:48;;;;;;;;;19.00;8.50;;;;;;;;5050522;28;8817;-67
2024/03/31 14:00:14;;;;;;;;;19.50;9.75;;;;;;;;5050608;28;9535;-67
2024/03/31 14:02:39;;;;;;;;;12.50;9.25;;;;;;;;5050137;28;8809;-67
2024/03/31 14:05:04;;;;;;;;;16.50;10.00;;;;;;;;5050184;28;8809;-67
2024/03/31 14:07:30;;;;;;;;;17.75;11.75;;;;;;;;5050189;28;8821;-67
2024/03/31 14:09:55;;;;;;;;;10.50;9.00;;;;;;;;5049944;28;8797;-67
2024/03/31 14:12:20;;;;;;;;;22.25;11.50;;;;;;;;5053705;28;8802;-67
2024/03/31 14:14:48;;;;;;;;;18.00;10.00;;;;;;;;5068829;28;8814;-69
2024/03/31 14:17:13;;;;;;;;;17.25;11.50;;;;;;;;5052931;28;8840;-71
2024/03/31 14:19:38;;;;;;;;;15.50;8.50;;;;;;;;5063278;28;10055;-71
2024/03/31 14:22:04;;;;;;;;;11.50;9.25;;;;;;;;5068910;28;8811;-72
2024/03/31 14:24:29;;;;;;;;;18.25;11.75;;;;;;;;5070073;28;8815;-72
2024/03/31 14:26:54;;;;;;;;;16.50;10.25;;;;;;;;5069585;28;8873;-72
2024/03/31 14:29:19;;;;;;;;;20.50;12.00;;;;;;;;5068004;28;9533;-72
2024/03/31 14:31:45;;;;;;;;;15.25;9.75;;;;;;;;5066909;28;8825;-72
2024/03/31 14:34:10;;;;;;;;;16.00;12.75;;;;;;;;5058797;28;9814;-71
2024/03/31 14:36:35;;;;;;;;;16.75;9.00;;;;;;;;5055954;28;9030;-70
2024/03/31 14:39:04;;;;;;;;;23.25;11.75;;;;;;;;5067368;28;8887;-71
2024/03/31 14:41:30;;;;;;;;;13.00;7.50;;;;;;;;5070112;28;8830;-70
2024/03/31 14:43:55;;;;;;;;;18.75;11.50;;;;;;;;5069168;28;10010;-69
2024/03/31 14:46:21;;;;;;;;;17.50;9.75;;;;;;;;5068900;28;9900;-69
2024/03/31 14:48:46;;;;;;;;;18.25;10.75;;;;;;;;5068830;28;8891;-69
2024/03/31 14:51:12;;;;;;;;;18.50;12.25;;;;;;;;5069932;28;8771;-69
2024/03/31 14:53:37;;;;;;;;;14.00;11.25;;;;;;;;5069929;28;8814;-74
2024/03/31 14:56:09;;;;;;;;;14.25;7.00;;;;;;;;5069184;28;8821;-72
2024/03/31 14:58:34;;;;;;;;;13.25;9.50;;;;;;;;5065283;28;9638;-72
2024/03/31 15:01:00;;;;;;;;;17.75;9.25;;;;;;;;5068820;28;10139;-71
2024/03/31 15:03:25;;;;;;;;;16.00;11.00;;;;;;;;5070359;28;8783;-71
2024/03/31 15:05:51;;;;;;;;;20.50;10.25;;;;;;;;5055818;28;11490;-70
2024/03/31 15:08:17;;;;;;;;;19.75;9.00;;;;;;;;5067157;28;8845;-70
2024/03/31 15:10:43;;;;;;;;;13.25;8.50;;;;;;;;5071995;28;8813;-70
2024/03/31 15:13:08;;;;;;;;;18.25;12.25;;;;;;;;5061723;28;9970;-69
2024/03/31 15:15:33;;;;;;;;;20.00;11.00;;;;;;;;5069051;28;8876;-69
2024/03/31 15:17:59;;;;;;;;;11.75;5.25;;;;;;;;5071562;28;8953;-71
2024/03/31 15:20:24;;;;;;;;;14.75;10.75;;;;;;;;5071207;28;10049;-71
2024/03/31 15:22:50;;;;;;;;;13.75;11.50;;;;;;;;5073545;28;8803;-71
2024/03/31 15:25:15;;;;;;;;;17.00;11.00;;;;;;;;5073077;28;8799;-69
2024/03/31 15:27:40;;;;;;;;;10.75;4.00;;;;;;;;5072603;28;8835;-69
2024/03/31 15:30:06;;;;;;;;;13.00;9.00;;;;;;;;5070815;28;8799;-70
2024/03/31 15:32:32;;;;;;;;;15.25;9.75;;;;;;;;5072974;28;8805;-71
2024/03/31 15:34:57;;;;;;;;;23.25;11.50;;;;;;;;5063541;28;10228;-68
2024/03/31 15:37:22;;;;;;;;;14.00;9.50;;;;;;;;5057373;28;8860;-70
2024/03/31 15:39:48;;;;;;;;;18.50;11.50;;;;;;;;5070677;28;8806;-71
2024/03/31 15:42:13;;;;;;;;;14.00;10.50;;;;;;;;5072887;28;8803;-68
2024/03/31 15:44:38;;;;;;;;;17.25;8.25;;;;;;;;5072687;28;8822;-69
2024/03/31 15:47:04;;;;;;;;;16.75;10.50;;;;;;;;5071109;28;8830;-78
2024/03/31 15:49:32;;;;;;;;;9.25;7.50;;;;;;;;5072898;28;8811;-64
2024/03/31 15:51:57;;;;;;;;;17.00;9.75;;;;;;;;5068702;28;9519;-65
2024/03/31 15:54:23;;;;;;;;;18.00;10.25;;;;;;;;5052620;28;9903;-67
2024/03/31 15:56:48;;;;;;;;;18.50;10.25;;;;;;;;5068121;28;8824;-79
2024/03/31 15:59:14;;;;;;;;;18.75;10.25;;;;;;;;5052345;28;8790;-79
2024/03/31 16:01:39;;;;;;;;;12.75;9.25;;;;;;;;5051536;28;8935;-76
2024/03/31 16:04:04;;;;;;;;;14.00;9.75;;;;;;;;5052853;28;8805;-70
2024/03/31 16:06:29;;;;;;;;;11.00;8.75;;;;;;;;5068005;28;8810;-71
2024/03/31 16:08:56;;;;;;;;;13.25;10.25;;;;;;;;5071789;28;8794;-72
2024/03/31 16:11:22;;;;;;;;;16.25;11.00;;;;;;;;5071179;28;8811;-76
2024/03/31 16:13:49;;;;;;;;;10.75;8.00;;;;;;;;5063197;28;10135;-68
2024/03/31 16:16:15;;;;;;;;;13.25;10.00;;;;;;;;5072121;28;8786;-72
2024/03/31 16:18:40;;;;;;;;;11.50;8.00;;;;;;;;5072283;28;9970;-73
2024/03/31 16:21:06;;;;;;;;;12.25;7.75;;;;;;;;5072062;28;9948;-67
2024/03/31 16:23:32;;;;;;;;;12.50;8.25;;;;;;;;5070990;28;8817;-68
2024/03/31 16:25:57;;;;;;;;;11.25;10.75;;;;;;;;5072311;28;8794;-66
